Time;durP1;ratioP1;P1;durP2;ratioP2;P2;SDS_P1;SDS_P2;PMS_P1;PMS_P2;Temp;Humidity;BMP_temperature;BMP_pressure;BME280_temperature;BME280_humidity;BME280_pressure;Samples;Min_cycle;Max_cycle;Signal;HPM_P1;HPM_P2
2023/07/12 00:01:00;;;;;;;;;;;;;;;18.94;79.25;100789.25;5090665;28;19920;-72
2023/07/12 00:03:25;;;;;;;;;;;;;;;18.92;78.23;100786.66;5090210;28;19920;-72
2023/07/12 00:05:51;;;;;;;;;;;;;;;18.94;82.00;100783.88;5090065;28;19950;-73
2023/07/12 00:08:24;;;;;;;;;;;;;;;18.92;81.23;100781.31;5079417;28;20002;-72
2023/07/12 00:10:51;;;;;;;;;;;;;;;18.81;81.59;100789.94;5096513;28;20020;-72
2023/07/12 00:13:17;;;;;;;;;;;;;;;18.76;79.65;100794.72;5110761;28;19962;-72
2023/07/12 00:15:42;;;;;;;;;;;;;;;18.69;81.54;100794.19;5106336;28;19963;-73
2023/07/12 00:18:15;;;;;;;;;;;;;;;18.69;81.75;100791.50;5110781;28;20382;-72
2023/07/12 00:20:41;;;;;;;;;;;;;;;18.72;82.17;100809.25;5092285;28;19916;-72
2023/07/12 00:23:07;;;;;;;;;;;;;;;18.68;82.24;100824.63;5077724;28;19916;-72
2023/07/12 00:25:33;;;;;;;;;;;;;;;18.69;83.65;100814.75;5092297;28;20317;-72
2023/07/12 00:27:59;;;;;;;;;;;;;;;18.72;78.40;100805.66;5110133;28;19959;-73
2023/07/12 00:30:29;;;;;;;;;;;;;;;18.66;81.52;100817.63;5081974;28;20379;-72
2023/07/12 00:32:55;;;;;;;;;;;;;;;18.63;81.29;100817.78;5104393;28;19912;-72
2023/07/12 00:35:25;;;;;;;;;;;;;;;18.61;84.50;100831.28;5095093;28;20306;-72
2023/07/12 00:37:52;;;;;;;;;;;;;;;18.62;85.74;100834.81;5084944;28;19916;-72
2023/07/12 00:40:36;;;;;;;;;;;;;;;18.59;84.05;100837.69;5091913;28;19915;-73
2023/07/12 00:43:24;;;;;;;;;;;;;;;18.55;84.69;100855.78;5078516;28;19916;-72
2023/07/12 00:45:50;;;;;;;;;;;;;;;18.43;84.72;100851.06;5069444;28;20418;-72
2023/07/12 00:48:16;;;;;;;;;;;;;;;18.33;86.44;100864.13;5084606;28;19996;-74
2023/07/12 00:50:42;;;;;;;;;;;;;;;18.22;86.15;100870.06;5085399;28;19955;-72
2023/07/12 00:53:12;;;;;;;;;;;;;;;18.14;85.79;100868.72;5103397;28;20238;-73
2023/07/12 00:55:57;;;;;;;;;;;;;;;18.02;86.33;100875.59;5095966;28;19965;-73
2023/07/12 00:58:24;;;;;;;;;;;;;;;17.91;84.46;100886.88;5096081;28;19974;-73
2023/07/12 01:00:50;;;;;;;;;;;;;;;17.84;84.91;100875.59;5090308;28;20007;-73
2023/07/12 01:03:18;;;;;;;;;;;;;;;17.75;86.18;100891.22;5104192;28;19922;-73
2023/07/12 01:05:45;;;;;;;;;;;;;;;17.62;87.28;100897.22;5091148;28;20033;-72
2023/07/12 01:08:12;;;;;;;;;;;;;;;17.50;85.86;100908.53;5082171;28;20006;-73
2023/07/12 01:10:38;;;;;;;;;;;;;;;17.46;86.07;100877.53;5095616;28;19925;-72
2023/07/12 01:13:05;;;;;;;;;;;;;;;17.38;85.44;100852.94;5095415;28;19919;-72
2023/07/12 01:15:32;;;;;;;;;;;;;;;17.34;86.99;100915.59;5084250;28;19923;-73
2023/07/12 01:17:57;;;;;;;;;;;;;;;17.32;86.75;100909.44;5078650;28;20255;-73
2023/07/12 01:20:23;;;;;;;;;;;;;;;17.27;86.12;100888.25;5095656;28;19919;-74
2023/07/12 01:22:51;;;;;;;;;;;;;;;17.25;86.81;100890.13;5081102;28;19916;-72
2023/07/12 01:25:16;;;;;;;;;;;;;;;17.17;84.33;100852.19;5078352;28;19931;-73
2023/07/12 01:27:42;;;;;;;;;;;;;;;17.15;86.29;100864.78;5095304;28;19920;-72
2023/07/12 01:30:08;;;;;;;;;;;;;;;17.17;84.89;100849.50;5091059;28;19916;-72
2023/07/12 01:32:33;;;;;;;;;;;;;;;17.14;86.82;100838.97;5078565;28;19962;-73
2023/07/12 01:34:59;;;;;;;;;;;;;;;17.14;87.32;100847.00;5087892;28;19927;-72
2023/07/12 01:37:24;;;;;;;;;;;;;;;17.07;88.29;100841.06;5075811;28;19977;-73
2023/07/12 01:39:51;;;;;;;;;;;;;;;17.08;86.50;100856.16;5084133;28;19956;-72
2023/07/12 01:42:16;;;;;;;;;;;;;;;17.08;86.46;100860.66;5078261;28;20487;-72
2023/07/12 01:44:42;;;;;;;;;;;;;;;17.05;87.87;100836.75;5085419;28;20007;-67
2023/07/12 01:47:07;;;;;;;;;;;;;;;17.02;88.10;100835.09;5108695;28;19912;-67
2023/07/12 01:49:32;;;;;;;;;;;;;;;17.03;87.59;100825.25;5090520;28;20136;-67
2023/07/12 01:51:58;;;;;;;;;;;;;;;17.02;88.14;100819.03;5094592;28;20343;-67
2023/07/12 01:54:23;;;;;;;;;;;;;;;17.02;85.14;100805.66;5113125;28;20003;-68
2023/07/12 01:56:48;;;;;;;;;;;;;;;16.98;84.96;100804.06;5090216;28;20018;-67
2023/07/12 01:59:14;;;;;;;;;;;;;;;16.94;85.49;100797.16;5084809;28;20026;-68
2023/07/12 02:01:40;;;;;;;;;;;;;;;16.90;86.24;100780.38;5090650;28;20033;-67
2023/07/12 02:04:05;;;;;;;;;;;;;;;16.88;85.11;100805.47;5082467;28;19971;-67
2023/07/12 02:06:31;;;;;;;;;;;;;;;16.88;83.21;100805.47;5100798;28;20336;-67
2023/07/12 02:08:56;;;;;;;;;;;;;;;16.84;84.31;100802.06;5094430;28;20015;-67
2023/07/12 02:11:21;;;;;;;;;;;;;;;16.83;85.23;100789.63;5094772;28;19968;-67
2023/07/12 02:13:48;;;;;;;;;;;;;;;16.80;82.92;100791.59;5090316;28;19990;-67
2023/07/12 02:16:13;;;;;;;;;;;;;;;16.79;85.61;100857.59;5101929;28;20487;-67
2023/07/12 02:18:38;;;;;;;;;;;;;;;16.74;90.40;100883.63;5112863;28;19990;-67
2023/07/12 02:21:04;;;;;;;;;;;;;;;16.79;88.83;100851.34;5112893;28;20002;-67
2023/07/12 02:23:33;;;;;;;;;;;;;;;16.76;87.73;100837.19;5112836;28;19919;-67
2023/07/12 02:25:58;;;;;;;;;;;;;;;16.71;85.10;100839.19;5112267;28;20275;-67
2023/07/12 02:28:23;;;;;;;;;;;;;;;16.67;85.15;100847.44;5094443;28;19926;-67
2023/07/12 02:30:49;;;;;;;;;;;;;;;16.62;86.96;100857.50;5099748;28;20230;-67
2023/07/12 02:33:14;;;;;;;;;;;;;;;16.56;87.63;100832.75;5085062;28;19923;-67
2023/07/12 02:35:40;;;;;;;;;;;;;;;16.50;87.33;100824.16;5108794;28;20435;-67
2023/07/12 02:38:06;;;;;;;;;;;;;;;16.50;87.16;100826.84;5094225;28;19916;-67
2023/07/12 02:40:32;;;;;;;;;;;;;;;16.47;89.68;100835.88;5112443;28;20388;-67
2023/07/12 02:42:57;;;;;;;;;;;;;;;16.46;88.01;100823.44;5112197;28;19938;-67
2023/07/12 02:45:23;;;;;;;;;;;;;;;16.50;87.15;100833.06;5094017;28;19915;-68
2023/07/12 02:47:49;;;;;;;;;;;;;;;16.53;90.31;100842.72;5073733;28;20260;-68
2023/07/12 02:50:14;;;;;;;;;;;;;;;16.54;92.09;100857.81;5112403;28;19920;-67
2023/07/12 02:52:39;;;;;;;;;;;;;;;16.52;91.06;100857.91;5110613;28;19987;-67
2023/07/12 02:55:05;;;;;;;;;;;;;;;16.48;92.44;100855.44;5112271;28;20289;-67
2023/07/12 02:57:31;;;;;;;;;;;;;;;16.44;94.18;100860.03;5093732;28;19920;-67
2023/07/12 02:59:57;;;;;;;;;;;;;;;16.41;93.98;100851.31;5111884;28;20287;-67
2023/07/12 03:02:22;;;;;;;;;;;;;;;16.40;93.17;100868.31;5105979;28;19931;-67
2023/07/12 03:04:47;;;;;;;;;;;;;;;16.32;94.87;100864.19;5108031;28;19924;-67
2023/07/12 03:07:13;;;;;;;;;;;;;;;16.24;96.70;100855.63;5111759;28;20253;-67
2023/07/12 03:09:38;;;;;;;;;;;;;;;16.20;94.46;100848.69;5111588;28;19926;-67
2023/07/12 03:12:04;;;;;;;;;;;;;;;16.14;95.34;100851.63;5093253;28;20027;-67
2023/07/12 03:14:29;;;;;;;;;;;;;;;16.11;97.59;100857.97;5104476;28;20374;-67
2023/07/12 03:16:54;;;;;;;;;;;;;;;16.10;96.07;100860.72;5109500;28;19945;-67
2023/07/12 03:19:21;;;;;;;;;;;;;;;16.07;96.31;100858.19;5111468;28;20393;-67
2023/07/12 03:21:46;;;;;;;;;;;;;;;16.01;97.92;100856.66;5111441;28;19923;-67
2023/07/12 03:24:12;;;;;;;;;;;;;;;16.01;96.83;100850.44;5111359;28;19915;-67
2023/07/12 03:26:37;;;;;;;;;;;;;;;15.97;96.84;100855.03;5110897;28;19996;-67
2023/07/12 03:29:03;;;;;;;;;;;;;;;16.00;93.90;100856.72;5109631;28;20019;-67
2023/07/12 03:31:28;;;;;;;;;;;;;;;15.99;98.41;100861.19;5098386;28;20244;-67
2023/07/12 03:33:54;;;;;;;;;;;;;;;15.92;98.94;100870.41;5109024;28;20068;-67
2023/07/12 03:36:20;;;;;;;;;;;;;;;15.91;99.51;100874.03;5110169;28;20263;-67
2023/07/12 03:38:46;;;;;;;;;;;;;;;15.91;99.66;100885.56;5111124;28;19928;-67
2023/07/12 03:41:14;;;;;;;;;;;;;;;15.89;99.46;100879.41;5111311;28;20431;-67
2023/07/12 03:43:40;;;;;;;;;;;;;;;15.88;99.91;100885.69;5092769;28;20010;-67
2023/07/12 03:46:05;;;;;;;;;;;;;;;15.90;98.60;100893.66;5109025;28;20377;-67
2023/07/12 03:48:31;;;;;;;;;;;;;;;15.89;98.53;100895.44;5099504;28;19950;-67
2023/07/12 03:50:56;;;;;;;;;;;;;;;15.90;96.66;100891.00;5076105;28;19920;-67
2023/07/12 03:53:23;;;;;;;;;;;;;;;15.82;98.19;100882.41;5097300;28;19915;-67
2023/07/12 03:55:48;;;;;;;;;;;;;;;15.83;100.00;100892.19;5093038;28;19919;-67
2023/07/12 03:58:15;;;;;;;;;;;;;;;15.86;99.02;100884.03;5075992;28;19915;-67
2023/07/12 04:00:41;;;;;;;;;;;;;;;15.87;99.43;100883.09;5093113;28;19922;-68
2023/07/12 04:03:07;;;;;;;;;;;;;;;15.85;98.27;100899.19;5101335;28;19920;-67
2023/07/12 04:05:36;;;;;;;;;;;;;;;15.85;98.94;100901.88;5093314;28;19973;-67
2023/07/12 04:08:02;;;;;;;;;;;;;;;15.86;99.74;100903.59;5110861;28;19919;-67
2023/07/12 04:10:27;;;;;;;;;;;;;;;15.86;99.67;100898.25;5111401;28;20014;-67
2023/07/12 04:12:53;;;;;;;;;;;;;;;15.88;98.80;100908.88;5111012;28;19931;-67
2023/07/12 04:15:18;;;;;;;;;;;;;;;15.89;99.43;100894.56;5101966;28;20383;-67
2023/07/12 04:17:43;;;;;;;;;;;;;;;15.85;100.00;100901.88;5092992;28;19923;-67
2023/07/12 04:20:09;;;;;;;;;;;;;;;15.85;98.67;100904.53;5111158;28;19946;-68
2023/07/12 04:22:35;;;;;;;;;;;;;;;15.84;98.83;100912.59;5111047;28;19916;-67
2023/07/12 04:25:00;;;;;;;;;;;;;;;15.82;98.39;100911.78;5092675;28;20355;-67
2023/07/12 04:27:25;;;;;;;;;;;;;;;15.78;97.23;100916.41;5089198;28;20355;-67
2023/07/12 04:29:51;;;;;;;;;;;;;;;15.82;98.29;100909.13;5080899;28;19932;-67
2023/07/12 04:32:16;;;;;;;;;;;;;;;15.81;99.13;100913.59;5082304;28;20012;-67
2023/07/12 04:34:41;;;;;;;;;;;;;;;15.80;98.09;100911.88;5073003;28;19932;-67
2023/07/12 04:37:07;;;;;;;;;;;;;;;15.81;95.84;100907.41;5069856;28;20011;-67
2023/07/12 04:39:32;;;;;;;;;;;;;;;15.79;98.48;100915.47;5076595;28;19920;-67
2023/07/12 04:41:58;;;;;;;;;;;;;;;15.77;99.90;100911.97;5082525;28;19979;-67
2023/07/12 04:44:23;;;;;;;;;;;;;;;15.83;96.77;100921.56;5073963;28;19916;-67
2023/07/12 04:46:49;;;;;;;;;;;;;;;15.80;98.55;100911.88;5072167;28;20315;-67
2023/07/12 04:49:14;;;;;;;;;;;;;;;15.77;98.42;100908.44;5074613;28;19932;-67
2023/07/12 04:51:39;;;;;;;;;;;;;;;15.73;99.02;100918.41;5053723;28;20303;-68
2023/07/12 04:54:05;;;;;;;;;;;;;;;15.67;98.08;100906.13;5069055;28;19936;-67
2023/07/12 04:56:30;;;;;;;;;;;;;;;15.65;99.15;100916.03;5073531;28;19931;-67
2023/07/12 04:58:56;;;;;;;;;;;;;;;15.61;98.44;100909.06;5073885;28;19920;-68
2023/07/12 05:01:21;;;;;;;;;;;;;;;15.63;100.00;100914.34;5073621;28;19916;-67
2023/07/12 05:03:47;;;;;;;;;;;;;;;15.63;100.00;100917.03;5067600;28;19978;-67
2023/07/12 05:06:13;;;;;;;;;;;;;;;15.64;100.00;100919.63;5073263;28;19962;-67
2023/07/12 05:08:38;;;;;;;;;;;;;;;15.67;100.00;100918.63;5073375;28;19947;-67
2023/07/12 05:11:03;;;;;;;;;;;;;;;15.72;97.95;100927.31;5073591;28;20291;-67
2023/07/12 05:13:29;;;;;;;;;;;;;;;15.75;97.75;100927.22;5072922;28;20386;-68
2023/07/12 05:15:54;;;;;;;;;;;;;;;15.77;99.58;100924.47;5073332;28;19925;-68
2023/07/12 05:18:20;;;;;;;;;;;;;;;15.77;98.62;100914.66;5073288;28;19927;-68
2023/07/12 05:20:46;;;;;;;;;;;;;;;15.81;98.42;100920.75;5073487;28;19966;-67
2023/07/12 05:23:11;;;;;;;;;;;;;;;15.87;99.57;100915.13;5074794;28;19928;-68
2023/07/12 05:25:37;;;;;;;;;;;;;;;15.91;98.63;100916.75;5078345;28;19916;-68
2023/07/12 05:28:02;;;;;;;;;;;;;;;15.93;99.62;100924.72;5080947;28;19977;-68
2023/07/12 05:30:29;;;;;;;;;;;;;;;16.01;98.36;100933.25;5101296;28;19916;-68
2023/07/12 05:32:55;;;;;;;;;;;;;;;16.00;99.03;100942.19;5098713;28;20335;-68
2023/07/12 05:35:20;;;;;;;;;;;;;;;16.05;97.73;100949.09;5087407;28;20010;-68
2023/07/12 05:37:48;;;;;;;;;;;;;;;16.06;98.86;100955.28;5105362;28;19987;-68
2023/07/12 05:40:13;;;;;;;;;;;;;;;16.08;99.14;100953.44;5099433;28;19916;-68
2023/07/12 05:42:41;;;;;;;;;;;;;;;16.10;99.27;100952.44;5067209;28;19927;-68
2023/07/12 05:45:13;;;;;;;;;;;;;;;16.16;98.88;100945.06;5070799;28;20068;-69
2023/07/12 05:47:38;;;;;;;;;;;;;;;16.20;98.27;100944.88;5095179;28;19916;-69
2023/07/12 05:50:05;;;;;;;;;;;;;;;16.19;98.82;100953.81;5071486;28;19988;-69
2023/07/12 05:52:30;;;;;;;;;;;;;;;16.21;99.31;100946.59;5089630;28;19932;-69
2023/07/12 05:54:55;;;;;;;;;;;;;;;16.26;99.09;100944.59;5070018;28;20374;-69
2023/07/12 05:57:21;;;;;;;;;;;;;;;16.32;99.55;100949.69;5070434;28;19924;-69
2023/07/12 05:59:46;;;;;;;;;;;;;;;16.41;98.39;100952.88;5092862;28;19935;-69
2023/07/12 06:02:13;;;;;;;;;;;;;;;16.45;96.68;100954.50;5066970;28;19921;-69
2023/07/12 06:04:38;;;;;;;;;;;;;;;16.46;98.32;100948.19;5054927;28;19923;-69
2023/07/12 06:07:04;;;;;;;;;;;;;;;16.52;96.88;100954.16;5092416;28;19920;-69
2023/07/12 06:09:29;;;;;;;;;;;;;;;16.55;96.98;100967.38;5092583;28;19920;-70
2023/07/12 06:11:55;;;;;;;;;;;;;;;16.61;97.79;100971.56;5092426;28;19916;-69
2023/07/12 06:14:20;;;;;;;;;;;;;;;16.65;96.93;100958.94;5092091;28;19994;-69
2023/07/12 06:16:45;;;;;;;;;;;;;;;16.70;96.54;100971.16;5070600;28;19921;-70
2023/07/12 06:19:11;;;;;;;;;;;;;;;16.73;96.27;100976.34;5092307;28;19916;-69
2023/07/12 06:21:37;;;;;;;;;;;;;;;16.73;95.79;100965.66;5092170;28;19965;-70
2023/07/12 06:24:03;;;;;;;;;;;;;;;16.75;95.79;100976.31;5070455;28;19920;-70
2023/07/12 06:26:29;;;;;;;;;;;;;;;16.76;95.64;100973.56;5050076;28;19924;-70
2023/07/12 06:28:54;;;;;;;;;;;;;;;16.80;95.29;100974.31;5067041;28;19984;-70
2023/07/12 06:31:20;;;;;;;;;;;;;;;16.80;94.68;100979.66;5070442;28;20018;-71
2023/07/12 06:33:45;;;;;;;;;;;;;;;16.73;94.96;100972.81;5071766;28;19920;-70
2023/07/12 06:36:10;;;;;;;;;;;;;;;16.72;94.79;100985.34;5053692;28;20442;-70
2023/07/12 06:38:36;;;;;;;;;;;;;;;16.76;94.46;100991.41;5076153;28;19928;-71
2023/07/12 06:41:01;;;;;;;;;;;;;;;16.77;94.29;100995.81;5050195;28;20314;-71
2023/07/12 06:43:26;;;;;;;;;;;;;;;16.82;93.73;101004.53;5069178;28;19916;-71
2023/07/12 06:45:52;;;;;;;;;;;;;;;16.77;93.50;101015.41;5069005;28;19920;-70
2023/07/12 06:48:17;;;;;;;;;;;;;;;16.71;94.54;101018.34;5076466;28;19920;-71
2023/07/12 06:50:44;;;;;;;;;;;;;;;16.76;93.78;101018.13;5090759;28;19960;-71
2023/07/12 06:53:10;;;;;;;;;;;;;;;16.72;93.37;101017.41;5071008;28;19928;-71
2023/07/12 06:55:40;;;;;;;;;;;;;;;16.75;94.33;101021.75;5069881;28;19931;-71
2023/07/12 06:58:05;;;;;;;;;;;;;;;16.75;94.47;101027.13;5069519;28;19920;-71
2023/07/12 07:00:31;;;;;;;;;;;;;;;16.76;94.29;101029.72;5069429;28;19916;-72
2023/07/12 07:02:56;;;;;;;;;;;;;;;16.83;94.24;101024.13;5063947;28;19997;-72
2023/07/12 07:05:22;;;;;;;;;;;;;;;16.91;93.53;101027.31;5071600;28;19920;-72
2023/07/12 07:07:47;;;;;;;;;;;;;;;16.96;93.50;101034.22;5071156;28;20373;-71
2023/07/12 07:10:13;;;;;;;;;;;;;;;17.01;93.00;101036.66;5071458;28;19935;-72
2023/07/12 07:12:38;;;;;;;;;;;;;;;16.99;92.91;101038.56;5069267;28;19920;-72
2023/07/12 07:15:04;;;;;;;;;;;;;;;16.97;92.24;101040.44;5070923;28;19931;-72
2023/07/12 07:17:29;;;;;;;;;;;;;;;16.98;91.77;101044.81;5071221;28;20267;-72
2023/07/12 07:19:54;;;;;;;;;;;;;;;17.01;92.10;101041.13;5070396;28;19920;-72
2023/07/12 07:22:20;;;;;;;;;;;;;;;17.04;91.83;101051.72;5070950;28;19924;-71
2023/07/12 07:24:45;;;;;;;;;;;;;;;17.03;91.94;101045.47;5069738;28;19964;-72
2023/07/12 07:27:12;;;;;;;;;;;;;;;17.03;91.98;101053.50;5085584;28;19924;-72
2023/07/12 07:29:38;;;;;;;;;;;;;;;17.11;90.99;101053.16;5090842;28;19957;-72
2023/07/12 07:32:03;;;;;;;;;;;;;;;17.10;91.14;101057.66;5073249;28;20549;-72
2023/07/12 07:34:29;;;;;;;;;;;;;;;17.10;91.89;101068.34;5084268;28;19927;-72
2023/07/12 07:36:54;;;;;;;;;;;;;;;17.15;91.69;101073.50;5090983;28;20006;-72
2023/07/12 07:39:19;;;;;;;;;;;;;;;17.31;90.92;101065.63;5073111;28;19924;-73
2023/07/12 07:41:45;;;;;;;;;;;;;;;17.42;90.51;101074.91;5072307;28;19920;-72
2023/07/12 07:44:10;;;;;;;;;;;;;;;17.50;89.94;101076.34;5062644;28;19916;-73
2023/07/12 07:46:35;;;;;;;;;;;;;;;17.54;90.41;101073.47;5084331;28;19927;-73
2023/07/12 07:49:01;;;;;;;;;;;;;;;17.64;88.51;101076.56;5085465;28;20295;-73
2023/07/12 07:51:29;;;;;;;;;;;;;;;17.65;89.12;101080.97;5085274;28;19931;-74
2023/07/12 07:53:54;;;;;;;;;;;;;;;17.69;88.53;101079.91;5083386;28;19924;-74
2023/07/12 07:56:20;;;;;;;;;;;;;;;17.73;88.41;101080.59;5049646;28;20344;-74
2023/07/12 07:58:45;;;;;;;;;;;;;;;17.80;87.11;101082.97;5085697;28;19920;-73
2023/07/12 08:01:10;;;;;;;;;;;;;;;17.88;87.04;101092.44;5085598;28;19920;-73
2023/07/12 08:03:36;;;;;;;;;;;;;;;17.92;87.20;101080.63;5085499;28;20335;-73
2023/07/12 08:06:05;;;;;;;;;;;;;;;17.97;86.30;101092.00;5067289;28;19953;-73
2023/07/12 08:08:30;;;;;;;;;;;;;;;18.02;85.33;101089.94;5084975;28;20047;-73
2023/07/12 08:10:55;;;;;;;;;;;;;;;18.02;84.92;101093.50;5085550;28;20058;-74
2023/07/12 08:13:21;;;;;;;;;;;;;;;18.11;85.01;101096.69;5083975;28;19965;-73
2023/07/12 08:15:46;;;;;;;;;;;;;;;18.12;84.81;101103.78;5071044;28;19920;-74
2023/07/12 08:18:12;;;;;;;;;;;;;;;18.18;84.75;101109.69;5089108;28;19920;-74
2023/07/12 08:20:38;;;;;;;;;;;;;;;18.27;82.01;101103.00;5070971;28;19920;-74
2023/07/12 08:23:04;;;;;;;;;;;;;;;18.28;82.70;101094.03;5087060;28;19964;-74
2023/07/12 08:25:30;;;;;;;;;;;;;;;18.35;81.50;101114.22;5088918;28;19992;-74
2023/07/12 08:27:55;;;;;;;;;;;;;;;18.26;81.46;101107.50;5071011;28;20014;-74
2023/07/12 08:30:21;;;;;;;;;;;;;;;18.26;81.22;101103.97;5088582;28;19939;-74
2023/07/12 08:32:46;;;;;;;;;;;;;;;18.23;81.48;101110.34;5089062;28;19928;-74
2023/07/12 08:35:11;;;;;;;;;;;;;;;18.34;81.80;101119.66;5088315;28;19932;-71
2023/07/12 08:37:37;;;;;;;;;;;;;;;18.57;81.47;101114.03;5088381;28;20412;-71
2023/07/12 08:40:03;;;;;;;;;;;;;;;18.80;80.03;101112.88;5070357;28;19924;-70
2023/07/12 08:42:37;;;;;;;;;;;;;;;18.83;79.36;101103.78;5088907;28;20271;-71
2023/07/12 08:45:14;;;;;;;;;;;;;;;18.95;80.69;101104.97;5087610;28;19924;-72
2023/07/12 08:47:40;;;;;;;;;;;;;;;19.10;80.56;101113.06;5069775;28;19985;-71
2023/07/12 08:50:15;;;;;;;;;;;;;;;19.31;78.40;101110.16;5054101;28;19924;-72
2023/07/12 08:52:42;;;;;;;;;;;;;;;19.47;76.82;101120.97;5070126;28;20301;-72
2023/07/12 08:55:10;;;;;;;;;;;;;;;19.49;76.31;101111.00;5088238;28;20279;-71
2023/07/12 08:57:38;;;;;;;;;;;;;;;19.61;75.52;101107.66;5069685;28;20073;-72
2023/07/12 09:00:18;;;;;;;;;;;;;;;19.72;75.51;101110.63;5088967;28;19928;-72
2023/07/12 09:02:43;;;;;;;;;;;;;;;19.75;75.12;101118.50;5088527;28;19924;-71
2023/07/12 09:05:16;;;;;;;;;;;;;;;19.69;74.66;101126.91;5069448;28;20409;-71
2023/07/12 09:07:47;;;;;;;;;;;;;;;19.57;75.34;101124.00;5090234;28;19942;-72
2023/07/12 09:10:24;;;;;;;;;;;;;;;19.60;75.39;101116.63;5066012;28;19916;-71
2023/07/12 09:12:51;;;;;;;;;;;;;;;19.79;73.78;101123.72;5088471;28;19942;-72
2023/07/12 09:15:16;;;;;;;;;;;;;;;19.75;72.93;101120.31;5072104;28;19927;-72
2023/07/12 09:17:43;;;;;;;;;;;;;;;19.80;73.59;101114.69;5093569;28;19920;-72
2023/07/12 09:20:22;;;;;;;;;;;;;;;19.89;72.75;101108.81;5075528;28;19916;-71
2023/07/12 09:22:48;;;;;;;;;;;;;;;20.07;72.57;101120.34;5074599;28;20367;-72
2023/07/12 09:25:22;;;;;;;;;;;;;;;20.22;72.20;101106.00;5074558;28;19920;-72
2023/07/12 09:27:49;;;;;;;;;;;;;;;20.52;71.92;101111.41;5061258;28;20012;-72
2023/07/12 09:30:18;;;;;;;;;;;;;;;20.74;71.14;101094.88;5091394;28;19916;-72
2023/07/12 09:32:45;;;;;;;;;;;;;;;20.92;68.24;101097.41;5084939;28;19992;-73
2023/07/12 09:35:29;;;;;;;;;;;;;;;21.02;68.55;101096.75;5086878;28;19926;-72
2023/07/12 09:37:59;;;;;;;;;;;;;;;20.86;67.50;101098.66;5064567;28;20239;-72
2023/07/12 09:40:28;;;;;;;;;;;;;;;20.93;67.64;101107.22;5091817;28;20349;-72
2023/07/12 09:42:56;;;;;;;;;;;;;;;21.04;66.19;101107.41;5091805;28;20011;-72
2023/07/12 09:45:22;;;;;;;;;;;;;;;21.03;66.13;101103.00;5089715;28;19943;-71
2023/07/12 09:48:04;;;;;;;;;;;;;;;20.98;65.47;101100.59;5051357;28;19917;-72
2023/07/12 09:50:35;;;;;;;;;;;;;;;21.13;64.34;101093.41;5097394;28;20421;-71
2023/07/12 09:53:08;;;;;;;;;;;;;;;21.23;64.33;101099.94;5089141;28;19923;-72
2023/07/12 09:55:54;;;;;;;;;;;;;;;21.36;63.44;101100.03;5101688;28;19920;-72
2023/07/12 09:58:38;;;;;;;;;;;;;;;21.37;63.80;101091.00;5093377;28;19935;-72
2023/07/12 10:01:29;;;;;;;;;;;;;;;21.26;62.58;101085.41;5111761;28;19919;-71
2023/07/12 10:03:56;;;;;;;;;;;;;;;21.17;62.53;101086.00;5067757;28;19923;-72
2023/07/12 10:06:27;;;;;;;;;;;;;;;21.34;63.29;101087.63;5111512;28;19916;-72
2023/07/12 10:09:09;;;;;;;;;;;;;;;21.65;61.85;101081.19;5111739;28;19924;-73
2023/07/12 10:11:35;;;;;;;;;;;;;;;21.75;60.68;101086.84;5111617;28;20010;-72
2023/07/12 10:14:06;;;;;;;;;;;;;;;21.85;60.06;101096.91;5111668;28;19977;-72
2023/07/12 10:16:34;;;;;;;;;;;;;;;21.92;60.28;101092.00;5111188;28;20292;-72
2023/07/12 10:19:10;;;;;;;;;;;;;;;21.90;59.17;101091.22;5085813;28;19993;-72
2023/07/12 10:21:36;;;;;;;;;;;;;;;21.87;60.14;101088.75;5096201;28;19927;-75
2023/07/12 10:24:03;;;;;;;;;;;;;;;21.81;60.81;101087.31;5062312;28;20199;-74
2023/07/12 10:26:31;;;;;;;;;;;;;;;21.80;59.11;101093.66;5012951;28;1815427;-74
2023/07/12 10:29:03;;;;;;;;;;;;;;;22.00;58.23;101089.66;5090363;28;19959;-75
2023/07/12 10:31:46;;;;;;;;;;;;;;;22.26;55.89;101092.50;5082155;28;19916;-74
2023/07/12 10:34:24;;;;;;;;;;;;;;;22.30;58.55;101094.00;5067805;28;19959;-74
2023/07/12 10:36:51;;;;;;;;;;;;;;;22.60;58.07;101098.31;5066760;28;20307;-75
2023/07/12 10:39:17;;;;;;;;;;;;;;;22.73;56.58;101097.38;5069589;28;20258;-75
2023/07/12 10:41:46;;;;;;;;;;;;;;;22.83;56.91;101086.81;5069392;28;19999;-72
2023/07/12 10:44:22;;;;;;;;;;;;;;;22.96;57.28;101094.91;5071075;28;19952;-72
2023/07/12 10:46:53;;;;;;;;;;;;;;;23.27;57.05;101095.47;5068198;28;19996;-72
2023/07/12 10:49:34;;;;;;;;;;;;;;;23.43;56.44;101097.94;5085896;28;19962;-72
2023/07/12 10:52:09;;;;;;;;;;;;;;;23.30;54.67;101093.44;5061805;28;19920;-72
2023/07/12 10:54:34;;;;;;;;;;;;;;;23.11;55.98;101095.69;5090920;28;19916;-72
2023/07/12 10:57:18;;;;;;;;;;;;;;;23.11;56.04;101106.50;5091124;28;19924;-72
2023/07/12 10:59:44;;;;;;;;;;;;;;;23.08;55.89;101099.47;5090993;28;19955;-72
2023/07/12 11:02:21;;;;;;;;;;;;;;;23.09;55.57;101103.03;5083380;28;19931;-72
2023/07/12 11:04:48;;;;;;;;;;;;;;;23.08;56.52;101099.47;5090531;28;19916;-71
2023/07/12 11:07:14;;;;;;;;;;;;;;;23.15;54.80;101084.56;5079717;28;19917;-72
2023/07/12 11:09:45;;;;;;;;;;;;;;;23.30;54.59;101092.56;5066042;28;19920;-72
2023/07/12 11:12:31;;;;;;;;;;;;;;;23.32;53.90;101090.63;5090717;28;19920;-72
2023/07/12 11:15:02;;;;;;;;;;;;;;;23.50;55.31;101093.84;5071032;28;20022;-72
2023/07/12 11:17:28;;;;;;;;;;;;;;;23.51;53.27;101101.81;5082902;28;20009;-72
2023/07/12 11:20:07;;;;;;;;;;;;;;;23.33;53.71;101100.44;5089659;28;19919;-72
2023/07/12 11:22:51;;;;;;;;;;;;;;;23.60;51.87;101103.84;5071394;28;20003;-73
2023/07/12 11:25:23;;;;;;;;;;;;;;;23.91;52.79;101095.38;5079570;28;19916;-72
2023/07/12 11:27:57;;;;;;;;;;;;;;;23.76;49.06;101094.66;5078346;28;19943;-72
2023/07/12 11:30:36;;;;;;;;;;;;;;;23.36;50.24;101109.19;5075940;28;19917;-71
2023/07/12 11:33:04;;;;;;;;;;;;;;;23.21;51.79;101104.03;5070197;28;19917;-71
2023/07/12 11:35:43;;;;;;;;;;;;;;;23.01;51.03;101106.28;5072586;28;19951;-71
2023/07/12 11:38:13;;;;;;;;;;;;;;;22.87;51.44;101112.63;5067283;28;20016;-71
2023/07/12 11:40:39;;;;;;;;;;;;;;;22.65;52.33;101115.03;5069635;28;20294;-71
2023/07/12 11:43:18;;;;;;;;;;;;;;;22.44;53.61;101129.03;5079379;28;19916;-70
2023/07/12 11:45:43;;;;;;;;;;;;;;;22.12;54.75;101139.22;5082084;28;19959;-71
2023/07/12 11:48:08;;;;;;;;;;;;;;;21.85;55.30;101123.88;5071216;28;19988;-69
2023/07/12 11:50:34;;;;;;;;;;;;;;;21.78;56.49;101130.63;5070131;28;19920;-71
2023/07/12 11:53:02;;;;;;;;;;;;;;;22.15;56.67;101128.25;5068117;28;19928;-71
2023/07/12 11:55:28;;;;;;;;;;;;;;;22.60;55.73;101141.50;5069661;28;19974;-72
2023/07/12 11:57:54;;;;;;;;;;;;;;;22.94;55.14;101130.09;5069806;28;20274;-71
2023/07/12 12:00:23;;;;;;;;;;;;;;;23.22;53.41;101127.34;5068257;28;19931;-72
2023/07/12 12:02:52;;;;;;;;;;;;;;;23.24;53.24;101123.56;5069836;28;19916;-72
2023/07/12 12:05:25;;;;;;;;;;;;;;;23.28;53.60;101125.09;5069571;28;19916;-72
2023/07/12 12:07:52;;;;;;;;;;;;;;;23.14;54.06;101123.34;5069568;28;20031;-72
2023/07/12 12:10:20;;;;;;;;;;;;;;;22.96;53.15;101133.56;5069770;28;19916;-71
2023/07/12 12:12:46;;;;;;;;;;;;;;;22.76;53.42;101137.66;5069220;28;19928;-71
2023/07/12 12:15:16;;;;;;;;;;;;;;;22.48;53.19;101146.75;5050915;28;19947;-71
2023/07/12 12:17:43;;;;;;;;;;;;;;;22.27;53.28;101140.09;5069233;28;19917;-71
2023/07/12 12:20:14;;;;;;;;;;;;;;;22.13;53.70;101140.94;5068314;28;19916;-71
2023/07/12 12:22:40;;;;;;;;;;;;;;;22.18;53.21;101144.25;5069327;28;20007;-71
2023/07/12 12:25:15;;;;;;;;;;;;;;;22.47;53.20;101136.91;5069504;28;20364;-71
2023/07/12 12:27:42;;;;;;;;;;;;;;;22.92;54.44;101137.47;5067595;28;19924;-72
2023/07/12 12:30:29;;;;;;;;;;;;;;;23.49;53.21;101132.63;5069386;28;20263;-76
2023/07/12 12:32:59;;;;;;;;;;;;;;;23.84;51.90;101135.53;5067543;28;20055;-72
2023/07/12 12:35:25;;;;;;;;;;;;;;;23.95;49.64;101132.03;5067931;28;19927;-73
2023/07/12 12:37:59;;;;;;;;;;;;;;;23.95;48.85;101138.31;5067192;28;19921;-72